Time;durP1;ratioP1;P1;durP2;ratioP2;P2;SDS_P1;SDS_P2;PMS_P1;PMS_P2;Temp;Humidity;BMP_temperature;BMP_pressure;BME280_temperature;BME280_humidity;BME280_pressure;Samples;Min_cycle;Max_cycle;Signal;HPM_P1;HPM_P2
2021/06/28 00:01:17;;;;;;;;;;;25.90;93.80;;;;;;5104352;28;19916;-43
2021/06/28 00:03:44;;;;;;;;;;;25.80;93.70;;;;;;5104921;28;19920;-51
2021/06/28 00:06:11;;;;;;;;;;;25.80;93.90;;;;;;5104292;28;20158;-61
2021/06/28 00:08:38;;;;;;;;;;;25.80;94.00;;;;;;5104961;28;19961;-47
2021/06/28 00:11:04;;;;;;;;;;;25.80;93.90;;;;;;5104859;28;19967;-47
2021/06/28 00:13:31;;;;;;;;;;;25.80;94.00;;;;;;5105032;28;19912;-48
2021/06/28 00:15:57;;;;;;;;;;;25.80;93.90;;;;;;5104511;28;19908;-48
2021/06/28 00:18:23;;;;;;;;;;;25.80;93.90;;;;;;5104469;28;19912;-47
2021/06/28 00:20:50;;;;;;;;;;;25.70;93.80;;;;;;5104220;28;19908;-49
2021/06/28 00:23:17;;;;;;;;;;;25.80;94.00;;;;;;5104202;28;19979;-51
2021/06/28 00:25:43;;;;;;;;;;;25.70;94.00;;;;;;5103702;28;20131;-55
2021/06/28 00:28:10;;;;;;;;;;;25.80;93.90;;;;;;5096909;28;20244;-44
2021/06/28 00:30:39;;;;;;;;;;;25.80;93.90;;;;;;5102748;28;20240;-44
2021/06/28 00:33:06;;;;;;;;;;;25.80;93.90;;;;;;5104867;28;19912;-44
2021/06/28 00:35:33;;;;;;;;;;;25.80;94.10;;;;;;5104273;28;19951;-50
2021/06/28 00:37:59;;;;;;;;;;;25.80;94.10;;;;;;5104165;28;20223;-49
2021/06/28 00:40:25;;;;;;;;;;;25.80;94.00;;;;;;5102771;28;19908;-48
2021/06/28 00:42:54;;;;;;;;;;;25.80;94.10;;;;;;5116457;28;20212;-45
2021/06/28 00:45:23;;;;;;;;;;;25.80;94.10;;;;;;5124539;28;19943;-47
2021/06/28 00:47:50;;;;;;;;;;;25.80;94.10;;;;;;5112931;28;19919;-50
2021/06/28 00:50:16;;;;;;;;;;;25.80;94.10;;;;;;5103894;28;19930;-49
2021/06/28 00:52:45;;;;;;;;;;;25.80;94.00;;;;;;5115448;28;19981;-48
2021/06/28 00:55:11;;;;;;;;;;;25.80;93.90;;;;;;5124753;28;19904;-46
2021/06/28 00:57:38;;;;;;;;;;;25.70;93.90;;;;;;5114549;28;19916;-48
2021/06/28 01:00:05;;;;;;;;;;;25.70;93.90;;;;;;5106279;28;19908;-45
2021/06/28 01:02:32;;;;;;;;;;;25.70;93.80;;;;;;5117666;28;19969;-56
2021/06/28 01:04:58;;;;;;;;;;;25.70;93.90;;;;;;5110190;28;19918;-44
2021/06/28 01:07:24;;;;;;;;;;;25.70;93.90;;;;;;5115680;28;19953;-48
2021/06/28 01:09:50;;;;;;;;;;;25.70;93.90;;;;;;5108001;28;19908;-42
2021/06/28 01:12:16;;;;;;;;;;;25.70;93.70;;;;;;5109309;28;19920;-48
2021/06/28 01:14:43;;;;;;;;;;;25.70;93.70;;;;;;5107642;28;19908;-55
2021/06/28 01:17:12;;;;;;;;;;;25.70;93.70;;;;;;5114430;28;19935;-51
2021/06/28 01:19:38;;;;;;;;;;;25.70;93.70;;;;;;5128563;27;20096;-45
2021/06/28 01:22:07;;;;;;;;;;;25.60;94.00;;;;;;5128420;28;20088;-49
2021/06/28 01:24:33;;;;;;;;;;;25.60;93.80;;;;;;5128234;28;19914;-50
2021/06/28 01:27:00;;;;;;;;;;;25.60;93.80;;;;;;5124345;28;19948;-47
2021/06/28 01:29:26;;;;;;;;;;;25.60;93.70;;;;;;5127591;28;19970;-46
2021/06/28 01:31:52;;;;;;;;;;;25.60;93.60;;;;;;5128103;28;19953;-58
2021/06/28 01:34:18;;;;;;;;;;;25.70;93.60;;;;;;5128065;28;19904;-53
2021/06/28 01:36:44;;;;;;;;;;;25.60;93.50;;;;;;5127868;28;19923;-48
2021/06/28 01:39:11;;;;;;;;;;;25.60;93.40;;;;;;5127856;27;20111;-48
2021/06/28 01:41:37;;;;;;;;;;;25.60;93.40;;;;;;5127909;28;19910;-49
2021/06/28 01:44:03;;;;;;;;;;;25.60;93.50;;;;;;5127713;28;20200;-45
2021/06/28 01:46:30;;;;;;;;;;;25.50;93.50;;;;;;5126075;27;20215;-53
2021/06/28 01:48:56;;;;;;;;;;;25.50;93.70;;;;;;5106747;28;19914;-48
2021/06/28 01:51:22;;;;;;;;;;;25.50;93.80;;;;;;5106251;28;19958;-51
2021/06/28 01:53:48;;;;;;;;;;;25.50;93.90;;;;;;5127557;28;19912;-51
2021/06/28 01:56:14;;;;;;;;;;;25.50;93.90;;;;;;5127500;28;19910;-50
2021/06/28 01:58:41;;;;;;;;;;;25.50;93.80;;;;;;5128022;28;19912;-56
2021/06/28 02:01:07;;;;;;;;;;;25.50;93.80;;;;;;5127766;27;20022;-48
2021/06/28 02:03:38;;;;;;;;;;;25.50;93.70;;;;;;5127924;28;20151;-55
2021/06/28 02:06:04;;;;;;;;;;;25.50;93.80;;;;;;5127647;28;19908;-48
2021/06/28 02:08:32;;;;;;;;;;;25.40;93.80;;;;;;5127263;28;20253;-50
2021/06/28 02:10:59;;;;;;;;;;;25.40;93.90;;;;;;5126024;28;19904;-47
2021/06/28 02:13:27;;;;;;;;;;;25.40;93.90;;;;;;5127200;28;20097;-51
2021/06/28 02:15:54;;;;;;;;;;;25.40;94.30;;;;;;5127663;28;19903;-53
2021/06/28 02:18:24;;;;;;;;;;;25.40;94.30;;;;;;5127682;28;19912;-45
2021/06/28 02:20:51;;;;;;;;;;;25.40;94.30;;;;;;5127407;28;19903;-54
2021/06/28 02:23:23;;;;;;;;;;;25.40;94.30;;;;;;5127635;28;19911;-51
2021/06/28 02:25:50;;;;;;;;;;;25.40;94.40;;;;;;5126861;28;20165;-49
2021/06/28 02:28:17;;;;;;;;;;;25.40;94.30;;;;;;5127500;28;19927;-48
2021/06/28 02:30:43;;;;;;;;;;;25.40;94.30;;;;;;5126915;28;19967;-52
2021/06/28 02:33:10;;;;;;;;;;;25.40;94.30;;;;;;5127205;28;19957;-53
2021/06/28 02:35:36;;;;;;;;;;;25.40;94.30;;;;;;5126968;28;19903;-49
2021/06/28 02:38:05;;;;;;;;;;;25.40;94.20;;;;;;5117853;28;19912;-46
2021/06/28 02:40:31;;;;;;;;;;;25.40;94.10;;;;;;5106241;28;19904;-51
2021/06/28 02:42:58;;;;;;;;;;;25.40;94.20;;;;;;5112228;28;20150;-50
2021/06/28 02:45:24;;;;;;;;;;;25.30;94.10;;;;;;5126823;28;19962;-45
2021/06/28 02:47:50;;;;;;;;;;;25.30;94.10;;;;;;5126960;28;19908;-45
2021/06/28 02:50:16;;;;;;;;;;;25.30;94.20;;;;;;5125639;28;19908;-49
2021/06/28 02:52:43;;;;;;;;;;;25.40;94.40;;;;;;5126621;28;20196;-46
2021/06/28 02:55:10;;;;;;;;;;;25.40;94.50;;;;;;5126421;28;19926;-46
2021/06/28 02:57:36;;;;;;;;;;;25.30;94.50;;;;;;5126723;28;19954;-47
2021/06/28 03:00:07;;;;;;;;;;;25.30;94.50;;;;;;5126734;28;20244;-50
2021/06/28 03:02:34;;;;;;;;;;;25.40;94.50;;;;;;5126767;27;19915;-54
2021/06/28 03:05:00;;;;;;;;;;;25.40;94.40;;;;;;5121689;28;20212;-49
2021/06/28 03:07:26;;;;;;;;;;;25.40;94.30;;;;;;5106086;28;19916;-56
2021/06/28 03:09:52;;;;;;;;;;;25.40;94.30;;;;;;5104694;28;19939;-52
2021/06/28 03:12:19;;;;;;;;;;;25.30;94.30;;;;;;5105047;28;19958;-50
2021/06/28 03:14:45;;;;;;;;;;;25.40;94.30;;;;;;5105682;28;20208;-45
2021/06/28 03:17:11;;;;;;;;;;;25.30;94.30;;;;;;5104906;28;19917;-51
2021/06/28 03:19:37;;;;;;;;;;;25.30;94.40;;;;;;5103771;28;19908;-52
2021/06/28 03:22:03;;;;;;;;;;;25.30;94.40;;;;;;5104586;28;19920;-50
2021/06/28 03:24:30;;;;;;;;;;;25.30;94.50;;;;;;5104271;28;20188;-52
2021/06/28 03:26:56;;;;;;;;;;;25.30;94.50;;;;;;5125064;28;19912;-48
2021/06/28 03:29:22;;;;;;;;;;;25.30;94.60;;;;;;5125540;28;19903;-59
2021/06/28 03:31:48;;;;;;;;;;;25.30;94.70;;;;;;5105505;28;19919;-51
2021/06/28 03:34:15;;;;;;;;;;;25.30;94.70;;;;;;5105052;28;19904;-52
2021/06/28 03:36:44;;;;;;;;;;;25.30;94.70;;;;;;5105425;28;19908;-52
2021/06/28 03:39:10;;;;;;;;;;;25.20;94.80;;;;;;5104480;28;20196;-54
2021/06/28 03:41:37;;;;;;;;;;;25.30;94.80;;;;;;5106855;28;20065;-49
2021/06/28 03:44:04;;;;;;;;;;;25.30;94.80;;;;;;5104707;28;20222;-48
2021/06/28 03:46:30;;;;;;;;;;;25.20;94.80;;;;;;5106354;28;20192;-53
2021/06/28 03:48:57;;;;;;;;;;;25.20;94.90;;;;;;5103388;28;19908;-57
2021/06/28 03:51:23;;;;;;;;;;;25.20;94.80;;;;;;5104817;28;20205;-48
2021/06/28 03:53:49;;;;;;;;;;;25.30;94.80;;;;;;5104559;28;19908;-55
2021/06/28 03:56:16;;;;;;;;;;;25.30;94.90;;;;;;5102634;28;19908;-49
2021/06/28 03:58:43;;;;;;;;;;;25.20;94.90;;;;;;5104790;28;19927;-54
2021/06/28 04:01:10;;;;;;;;;;;25.30;94.90;;;;;;5105601;28;19916;-47
2021/06/28 04:03:37;;;;;;;;;;;25.30;94.80;;;;;;5104996;28;19908;-54
2021/06/28 04:06:05;;;;;;;;;;;25.30;94.80;;;;;;5106026;28;19916;-53
2021/06/28 04:08:34;;;;;;;;;;;25.20;94.70;;;;;;5104364;28;19957;-50
2021/06/28 04:11:01;;;;;;;;;;;25.30;94.70;;;;;;5106177;28;20169;-46
2021/06/28 04:13:28;;;;;;;;;;;25.20;94.60;;;;;;5102127;28;19912;-51
2021/06/28 04:15:54;;;;;;;;;;;25.20;94.60;;;;;;5107068;28;19904;-53
2021/06/28 04:18:22;;;;;;;;;;;25.20;94.70;;;;;;5105096;28;19975;-54
2021/06/28 04:20:49;;;;;;;;;;;25.20;94.60;;;;;;5113768;28;19979;-55
2021/06/28 04:23:15;;;;;;;;;;;25.20;94.40;;;;;;5123604;28;19919;-55
2021/06/28 04:25:41;;;;;;;;;;;25.20;94.40;;;;;;5123344;28;20100;-52
2021/06/28 04:28:08;;;;;;;;;;;25.20;94.40;;;;;;5104999;28;20260;-60
2021/06/28 04:30:34;;;;;;;;;;;25.20;94.40;;;;;;5111350;28;20300;-50
2021/06/28 04:33:00;;;;;;;;;;;25.20;94.50;;;;;;5124128;28;19943;-50
2021/06/28 04:35:27;;;;;;;;;;;25.20;94.40;;;;;;5124003;28;19911;-44
2021/06/28 04:37:55;;;;;;;;;;;25.20;94.40;;;;;;5125273;28;20112;-49
2021/06/28 04:40:23;;;;;;;;;;;25.20;94.40;;;;;;5125422;28;20078;-45
2021/06/28 04:42:49;;;;;;;;;;;25.30;94.40;;;;;;5125668;28;19911;-52
2021/06/28 04:45:16;;;;;;;;;;;25.30;94.30;;;;;;5125301;28;19907;-44
2021/06/28 04:47:43;;;;;;;;;;;25.30;94.30;;;;;;5121213;28;19979;-47
2021/06/28 04:50:10;;;;;;;;;;;25.30;94.30;;;;;;5108195;28;20092;-46
2021/06/28 04:52:36;;;;;;;;;;;25.30;94.40;;;;;;5108909;28;19912;-50
2021/06/28 04:55:04;;;;;;;;;;;25.30;94.40;;;;;;5103628;28;19904;-45
2021/06/28 04:57:31;;;;;;;;;;;25.30;94.30;;;;;;5104827;28;19912;-48
2021/06/28 04:59:57;;;;;;;;;;;25.20;94.30;;;;;;5104899;28;19904;-48
2021/06/28 05:02:23;;;;;;;;;;;25.30;94.30;;;;;;5117271;28;19947;-45
2021/06/28 05:04:50;;;;;;;;;;;25.30;94.40;;;;;;5125107;28;19931;-47
2021/06/28 05:07:17;;;;;;;;;;;25.30;94.30;;;;;;5124156;28;20272;-46
2021/06/28 05:09:43;;;;;;;;;;;25.30;94.20;;;;;;5123502;28;19903;-45
2021/06/28 05:12:10;;;;;;;;;;;25.30;94.20;;;;;;5123424;28;19912;-46
2021/06/28 05:14:37;;;;;;;;;;;25.30;94.10;;;;;;5123423;28;19911;-51
2021/06/28 05:17:03;;;;;;;;;;;25.30;94.20;;;;;;5123291;28;19934;-45
2021/06/28 05:19:29;;;;;;;;;;;25.30;94.10;;;;;;5123400;28;20077;-49
2021/06/28 05:21:56;;;;;;;;;;;25.30;94.10;;;;;;5123769;28;19916;-49
2021/06/28 05:24:22;;;;;;;;;;;25.30;94.20;;;;;;5124993;28;19971;-47
2021/06/28 05:26:48;;;;;;;;;;;25.30;94.20;;;;;;5124814;28;20060;-50
2021/06/28 05:29:14;;;;;;;;;;;25.20;94.20;;;;;;5124973;28;20064;-54
2021/06/28 05:31:40;;;;;;;;;;;25.20;94.20;;;;;;5124850;28;19929;-55
2021/06/28 05:34:07;;;;;;;;;;;25.20;94.10;;;;;;5124722;28;19962;-50
2021/06/28 05:36:34;;;;;;;;;;;25.30;94.10;;;;;;5124445;28;19904;-45
2021/06/28 05:39:00;;;;;;;;;;;25.20;94.10;;;;;;5124735;28;19915;-45
2021/06/28 05:41:26;;;;;;;;;;;25.20;94.10;;;;;;5124663;28;20056;-45
2021/06/28 05:43:53;;;;;;;;;;;25.20;94.10;;;;;;5124806;28;19904;-45
2021/06/28 05:46:19;;;;;;;;;;;25.20;94.10;;;;;;5127760;28;19903;-44
2021/06/28 05:48:45;;;;;;;;;;;25.20;94.00;;;;;;5128992;28;19915;-44
2021/06/28 05:51:12;;;;;;;;;;;25.20;94.00;;;;;;5128301;28;19917;-45
2021/06/28 05:53:38;;;;;;;;;;;25.20;94.10;;;;;;5129027;28;19912;-44
2021/06/28 05:56:07;;;;;;;;;;;25.20;94.10;;;;;;5128247;28;19903;-51
2021/06/28 05:58:33;;;;;;;;;;;25.20;94.10;;;;;;5128807;28;19969;-47
2021/06/28 06:01:00;;;;;;;;;;;25.20;94.20;;;;;;5128113;28;19904;-47
2021/06/28 06:03:26;;;;;;;;;;;25.20;94.20;;;;;;5128732;28;19939;-60
2021/06/28 06:05:53;;;;;;;;;;;25.20;94.20;;;;;;5128139;28;19915;-53
2021/06/28 06:08:26;;;;;;;;;;;25.20;94.20;;;;;;5128537;28;19912;-45
2021/06/28 06:10:53;;;;;;;;;;;25.20;94.20;;;;;;5128189;28;19903;-43
2021/06/28 06:13:19;;;;;;;;;;;25.20;94.10;;;;;;5128317;27;20196;-47
2021/06/28 06:15:45;;;;;;;;;;;25.20;94.10;;;;;;5128225;28;19908;-44
2021/06/28 06:18:12;;;;;;;;;;;25.20;94.10;;;;;;5128201;28;19912;-55
2021/06/28 06:20:38;;;;;;;;;;;25.20;94.10;;;;;;5127864;28;19926;-49
2021/06/28 06:23:04;;;;;;;;;;;25.20;94.10;;;;;;5128056;28;19954;-45
2021/06/28 06:25:30;;;;;;;;;;;25.20;94.00;;;;;;5126656;28;19907;-46
2021/06/28 06:27:56;;;;;;;;;;;25.20;93.90;;;;;;5127992;28;19912;-44
2021/06/28 06:30:23;;;;;;;;;;;25.20;93.90;;;;;;5127832;28;20100;-45
2021/06/28 06:32:50;;;;;;;;;;;25.20;93.90;;;;;;5127909;28;19919;-52
2021/06/28 06:35:20;;;;;;;;;;;25.20;93.90;;;;;;5127771;28;19904;-45
2021/06/28 06:37:46;;;;;;;;;;;25.20;93.90;;;;;;5127634;28;19920;-49
2021/06/28 06:40:13;;;;;;;;;;;25.20;93.90;;;;;;5127673;28;19935;-48
2021/06/28 06:42:39;;;;;;;;;;;25.20;93.90;;;;;;5127522;28;19912;-49
2021/06/28 06:45:06;;;;;;;;;;;25.20;93.90;;;;;;5127390;28;19915;-48
2021/06/28 06:47:32;;;;;;;;;;;25.20;93.90;;;;;;5127560;28;19969;-56
2021/06/28 06:49:58;;;;;;;;;;;25.20;93.90;;;;;;5127483;28;19907;-46
2021/06/28 06:52:25;;;;;;;;;;;25.20;93.90;;;;;;5126667;28;19912;-45
2021/06/28 06:54:51;;;;;;;;;;;25.10;93.90;;;;;;5126938;28;19904;-48
2021/06/28 06:57:17;;;;;;;;;;;25.20;94.00;;;;;;5126183;28;19911;-52
2021/06/28 06:59:43;;;;;;;;;;;25.20;94.00;;;;;;5126702;28;19988;-52
2021/06/28 07:02:10;;;;;;;;;;;25.20;94.10;;;;;;5126714;28;20099;-53
2021/06/28 07:04:36;;;;;;;;;;;25.20;94.10;;;;;;5126509;28;20188;-45
2021/06/28 07:07:02;;;;;;;;;;;25.20;94.20;;;;;;5126325;28;19912;-43
2021/06/28 07:09:29;;;;;;;;;;;25.20;94.20;;;;;;5126591;28;19904;-55
2021/06/28 07:11:55;;;;;;;;;;;25.20;94.30;;;;;;5126329;28;19920;-54
2021/06/28 07:14:22;;;;;;;;;;;25.20;94.30;;;;;;5126285;28;19907;-57
2021/06/28 07:16:48;;;;;;;;;;;25.20;94.40;;;;;;5126225;28;19960;-46
2021/06/28 07:19:14;;;;;;;;;;;25.20;94.40;;;;;;5126247;28;19904;-49
2021/06/28 07:21:40;;;;;;;;;;;25.20;94.50;;;;;;5126068;28;19971;-49
2021/06/28 07:24:07;;;;;;;;;;;25.20;94.50;;;;;;5126275;28;19912;-51
2021/06/28 07:26:33;;;;;;;;;;;25.10;94.50;;;;;;5125980;28;19904;-47
2021/06/28 07:28:59;;;;;;;;;;;25.20;94.50;;;;;;5126036;28;19904;-52
2021/06/28 07:31:26;;;;;;;;;;;25.20;94.60;;;;;;5124636;28;19916;-48
2021/06/28 07:33:52;;;;;;;;;;;25.20;94.60;;;;;;5126259;28;20074;-50
2021/06/28 07:36:18;;;;;;;;;;;25.20;94.60;;;;;;5125879;28;19903;-51
2021/06/28 07:38:45;;;;;;;;;;;25.20;94.50;;;;;;5125694;28;19959;-49
2021/06/28 07:41:11;;;;;;;;;;;25.20;94.50;;;;;;5125688;28;19912;-51
2021/06/28 07:43:37;;;;;;;;;;;25.20;94.50;;;;;;5126407;28;19919;-47
2021/06/28 07:46:04;;;;;;;;;;;25.20;94.50;;;;;;5125519;28;19914;-47
2021/06/28 07:48:31;;;;;;;;;;;25.20;94.50;;;;;;5126213;28;19911;-46
2021/06/28 07:50:57;;;;;;;;;;;25.10;94.50;;;;;;5125530;27;19904;-51
2021/06/28 07:53:23;;;;;;;;;;;25.20;94.50;;;;;;5126102;28;19912;-47
2021/06/28 07:55:49;;;;;;;;;;;25.10;94.40;;;;;;5125657;28;19975;-49
2021/06/28 07:58:16;;;;;;;;;;;25.10;94.40;;;;;;5125888;28;19912;-45
2021/06/28 08:00:42;;;;;;;;;;;25.10;94.30;;;;;;5125463;28;19903;-46
2021/06/28 08:03:08;;;;;;;;;;;25.10;94.40;;;;;;5125664;28;20193;-56
2021/06/28 08:05:35;;;;;;;;;;;25.20;94.40;;;;;;5125697;28;19968;-46
2021/06/28 08:08:01;;;;;;;;;;;25.10;94.60;;;;;;5125032;28;19919;-49
2021/06/28 08:10:27;;;;;;;;;;;25.10;94.40;;;;;;5125135;28;19908;-46
2021/06/28 08:12:54;;;;;;;;;;;25.10;94.40;;;;;;5125488;28;19971;-48
2021/06/28 08:15:20;;;;;;;;;;;25.10;94.40;;;;;;5125334;28;19904;-50
2021/06/28 08:17:50;;;;;;;;;;;25.10;94.40;;;;;;5125371;28;19920;-53
2021/06/28 08:20:17;;;;;;;;;;;25.10;94.40;;;;;;5125285;28;20210;-44
2021/06/28 08:22:43;;;;;;;;;;;25.10;94.50;;;;;;5124903;28;20199;-52
2021/06/28 08:25:11;;;;;;;;;;;25.10;94.50;;;;;;5125104;28;19953;-49
2021/06/28 08:27:37;;;;;;;;;;;25.10;94.50;;;;;;5121489;28;19957;-46
2021/06/28 08:30:04;;;;;;;;;;;25.10;94.50;;;;;;5125119;28;19939;-56
2021/06/28 08:32:31;;;;;;;;;;;25.10;94.50;;;;;;5125318;28;19911;-48
2021/06/28 08:34:59;;;;;;;;;;;25.10;94.60;;;;;;5125110;28;19904;-46
2021/06/28 08:37:25;;;;;;;;;;;25.10;94.60;;;;;;5125090;28;19912;-52
2021/06/28 08:39:52;;;;;;;;;;;25.10;94.70;;;;;;5124877;28;19931;-52
2021/06/28 08:42:18;;;;;;;;;;;25.10;94.70;;;;;;5116896;28;19912;-51
2021/06/28 08:44:45;;;;;;;;;;;25.10;94.60;;;;;;5104514;28;19908;-45
2021/06/28 08:47:12;;;;;;;;;;;25.10;94.70;;;;;;5110449;28;20240;-43
2021/06/28 08:49:41;;;;;;;;;;;25.10;94.70;;;;;;5125173;28;19938;-53
2021/06/28 08:52:07;;;;;;;;;;;25.10;94.70;;;;;;5124785;28;19912;-61
2021/06/28 08:54:34;;;;;;;;;;;25.00;94.70;;;;;;5124820;28;19915;-43
2021/06/28 08:57:00;;;;;;;;;;;25.00;94.80;;;;;;5124760;28;20188;-48
2021/06/28 08:59:27;;;;;;;;;;;25.00;94.80;;;;;;5124927;28;20112;-52
2021/06/28 09:01:53;;;;;;;;;;;25.00;94.80;;;;;;5124593;28;20231;-44
2021/06/28 09:04:19;;;;;;;;;;;25.00;94.80;;;;;;5124824;28;19907;-45
2021/06/28 09:06:46;;;;;;;;;;;25.00;94.80;;;;;;5124567;28;20017;-53
2021/06/28 09:09:13;;;;;;;;;;;25.00;94.90;;;;;;5124645;28;19904;-45
2021/06/28 09:11:41;;;;;;;;;;;25.00;94.90;;;;;;5124452;28;19910;-47
2021/06/28 09:14:08;;;;;;;;;;;25.00;94.90;;;;;;5124665;28;19904;-61
2021/06/28 09:16:35;;;;;;;;;;;25.00;94.80;;;;;;5124420;28;19974;-43
2021/06/28 09:19:02;;;;;;;;;;;25.00;94.80;;;;;;5124682;28;19903;-56
2021/06/28 09:21:34;;;;;;;;;;;25.00;94.80;;;;;;5128125;28;19974;-45
2021/06/28 09:24:01;;;;;;;;;;;25.00;94.80;;;;;;5128801;28;19908;-49
2021/06/28 09:26:29;;;;;;;;;;;25.00;94.90;;;;;;5128495;27;19904;-44
2021/06/28 09:28:57;;;;;;;;;;;25.00;94.90;;;;;;5128610;28;19904;-43
2021/06/28 09:31:32;;;;;;;;;;;25.00;94.90;;;;;;5128480;28;19911;-46
2021/06/28 09:34:16;;;;;;;;;;;25.00;94.90;;;;;;5128388;28;20237;-51
2021/06/28 09:36:48;;;;;;;;;;;25.00;94.90;;;;;;5128500;28;19911;-45
2021/06/28 09:39:20;;;;;;;;;;;25.00;94.90;;;;;;5128326;28;19916;-45
2021/06/28 09:41:46;;;;;;;;;;;25.00;94.90;;;;;;5128081;28;20212;-47
2021/06/28 09:44:12;;;;;;;;;;;25.00;95.00;;;;;;5128179;28;19983;-43
2021/06/28 09:46:39;;;;;;;;;;;25.00;94.90;;;;;;5128054;28;20184;-45
2021/06/28 09:49:06;;;;;;;;;;;25.00;94.90;;;;;;5128123;28;19904;-47
2021/06/28 09:51:33;;;;;;;;;;;24.90;94.90;;;;;;5127906;28;20123;-44
2021/06/28 09:54:05;;;;;;;;;;;25.00;95.00;;;;;;5128040;27;19904;-45
2021/06/28 09:56:36;;;;;;;;;;;25.00;94.90;;;;;;5127737;28;19945;-49
2021/06/28 09:59:22;;;;;;;;;;;25.00;94.90;;;;;;5127908;28;19908;-45
2021/06/28 10:01:49;;;;;;;;;;;25.00;94.80;;;;;;5127589;28;19912;-45
2021/06/28 10:04:37;;;;;;;;;;;25.00;94.80;;;;;;5127896;28;19914;-45
2021/06/28 10:07:24;;;;;;;;;;;25.00;94.70;;;;;;5126325;28;19939;-46
2021/06/28 10:10:10;;;;;;;;;;;25.00;94.70;;;;;;5127202;28;19904;-49
2021/06/28 10:12:37;;;;;;;;;;;25.00;94.80;;;;;;5127683;28;19920;-44
2021/06/28 10:15:04;;;;;;;;;;;25.00;94.80;;;;;;5127716;28;19904;-44
2021/06/28 10:17:31;;;;;;;;;;;25.00;94.70;;;;;;5127547;28;19943;-51
2021/06/28 10:19:57;;;;;;;;;;;25.00;94.70;;;;;;5127490;28;19912;-50
2021/06/28 10:22:23;;;;;;;;;;;25.00;94.70;;;;;;5127631;28;19911;-43
2021/06/28 10:24:49;;;;;;;;;;;25.00;94.70;;;;;;5127342;28;19907;-50
2021/06/28 10:27:16;;;;;;;;;;;25.00;94.60;;;;;;5127430;27;19990;-53
2021/06/28 10:29:43;;;;;;;;;;;25.00;94.70;;;;;;5127320;28;19911;-44
2021/06/28 10:32:10;;;;;;;;;;;25.00;94.80;;;;;;5126228;28;19957;-49
2021/06/28 10:34:37;;;;;;;;;;;25.00;94.80;;;;;;5127413;28;20188;-50
2021/06/28 10:37:23;;;;;;;;;;;25.00;94.80;;;;;;5127276;28;19911;-43
2021/06/28 10:39:59;;;;;;;;;;;25.00;94.80;;;;;;5126910;28;19923;-47
2021/06/28 10:42:30;;;;;;;;;;;25.00;94.80;;;;;;5127299;28;19912;-44
2021/06/28 10:44:56;;;;;;;;;;;25.00;94.70;;;;;;5127110;28;19974;-44
2021/06/28 10:47:22;;;;;;;;;;;25.00;94.70;;;;;;5127212;28;19985;-45
2021/06/28 10:49:52;;;;;;;;;;;25.00;94.70;;;;;;5126894;28;19908;-48
2021/06/28 10:52:41;;;;;;;;;;;25.00;94.70;;;;;;5126684;28;19979;-46
2021/06/28 10:55:14;;;;;;;;;;;25.00;94.80;;;;;;5126985;27;20100;-51
2021/06/28 10:57:41;;;;;;;;;;;25.00;94.80;;;;;;5126759;28;19934;-44
2021/06/28 11:00:08;;;;;;;;;;;25.00;94.80;;;;;;5126758;28;19910;-45
2021/06/28 11:02:38;;;;;;;;;;;25.00;94.80;;;;;;5126711;28;19911;-48
2021/06/28 11:05:06;;;;;;;;;;;25.00;94.80;;;;;;5126538;28;19908;-43
2021/06/28 11:07:42;;;;;;;;;;;25.00;95.00;;;;;;5126663;28;19976;-44
2021/06/28 11:10:13;;;;;;;;;;;25.00;95.00;;;;;;5126531;28;19908;-44
2021/06/28 11:12:39;;;;;;;;;;;25.00;95.10;;;;;;5126548;28;19908;-51
2021/06/28 11:15:08;;;;;;;;;;;25.00;95.00;;;;;;5126466;28;19912;-52
2021/06/28 11:17:39;;;;;;;;;;;25.00;95.00;;;;;;5126417;28;19934;-43
2021/06/28 11:20:06;;;;;;;;;;;25.00;95.10;;;;;;5126397;28;19908;-43
2021/06/28 11:22:33;;;;;;;;;;;25.10;95.20;;;;;;5126450;28;19908;-44
2021/06/28 11:25:08;;;;;;;;;;;25.10;95.20;;;;;;5126219;28;19918;-48
2021/06/28 11:27:39;;;;;;;;;;;25.10;95.50;;;;;;5125984;28;19908;-48
2021/06/28 11:30:16;;;;;;;;;;;25.10;95.30;;;;;;5126172;28;19908;-49
2021/06/28 11:33:03;;;;;;;;;;;25.10;95.30;;;;;;5126206;28;19908;-45
2021/06/28 11:35:35;;;;;;;;;;;25.10;95.30;;;;;;5125957;28;19912;-52
2021/06/28 11:38:15;;;;;;;;;;;25.10;95.30;;;;;;5126156;28;19908;-52
2021/06/28 11:40:42;;;;;;;;;;;25.20;95.30;;;;;;5125908;28;19904;-54
2021/06/28 11:43:09;;;;;;;;;;;25.20;95.20;;;;;;5125959;28;19943;-51
2021/06/28 11:45:51;;;;;;;;;;;25.30;95.20;;;;;;5125795;28;20215;-48
2021/06/28 11:48:31;;;;;;;;;;;25.40;95.10;;;;;;5126056;28;19949;-45
2021/06/28 11:50:57;;;;;;;;;;;25.50;95.00;;;;;;5125815;28;19910;-46
2021/06/28 11:53:24;;;;;;;;;;;25.50;94.90;;;;;;5125988;28;19953;-49
2021/06/28 11:55:50;;;;;;;;;;;25.50;95.10;;;;;;5125633;28;20096;-42
2021/06/28 11:58:21;;;;;;;;;;;25.50;94.80;;;;;;5125963;27;19919;-51
2021/06/28 12:00:48;;;;;;;;;;;25.50;94.70;;;;;;5125588;28;20261;-52
2021/06/28 12:03:28;;;;;;;;;;;25.50;94.80;;;;;;5125886;28;19983;-46
2021/06/28 12:06:05;;;;;;;;;;;25.50;94.80;;;;;;5125369;28;20252;-47
2021/06/28 12:08:31;;;;;;;;;;;25.50;94.80;;;;;;5125759;28;19919;-50
2021/06/28 12:10:58;;;;;;;;;;;25.50;94.80;;;;;;5125473;28;19904;-46
2021/06/28 12:13:29;;;;;;;;;;;25.50;94.80;;;;;;5125505;28;19911;-44
2021/06/28 12:15:55;;;;;;;;;;;25.50;94.70;;;;;;5115522;28;19912;-44
2021/06/28 12:18:21;;;;;;;;;;;25.50;94.70;;;;;;5104959;28;19912;-54
2021/06/28 12:20:57;;;;;;;;;;;25.60;94.80;;;;;;5104748;28;19904;-46
2021/06/28 12:23:23;;;;;;;;;;;25.60;94.80;;;;;;5121159;28;19957;-48
2021/06/28 12:25:50;;;;;;;;;;;25.60;94.80;;;;;;5121994;28;19915;-44
2021/06/28 12:28:26;;;;;;;;;;;25.60;94.80;;;;;;5120065;28;19919;-52
2021/06/28 12:30:53;;;;;;;;;;;25.60;94.70;;;;;;5125077;28;20210;-46
2021/06/28 12:33:20;;;;;;;;;;;25.70;94.70;;;;;;5125208;28;19911;-45
2021/06/28 12:35:46;;;;;;;;;;;25.70;94.70;;;;;;5124881;28;20009;-47
2021/06/28 12:38:14;;;;;;;;;;;25.70;94.70;;;;;;5123443;28;19922;-45
2021/06/28 12:40:42;;;;;;;;;;;25.70;94.70;;;;;;5124804;28;19915;-45
2021/06/28 12:43:11;;;;;;;;;;;25.70;94.70;;;;;;5125047;28;19915;-52
2021/06/28 12:45:40;;;;;;;;;;;25.70;94.90;;;;;;5124693;28;19964;-52
2021/06/28 12:48:08;;;;;;;;;;;25.70;94.70;;;;;;5113676;28;19915;-52
2021/06/28 12:50:38;;;;;;;;;;;25.80;94.70;;;;;;5104494;28;19942;-48
2021/06/28 12:53:17;;;;;;;;;;;25.80;94.80;;;;;;5104413;28;19908;-46
2021/06/28 12:55:47;;;;;;;;;;;25.80;94.60;;;;;;5106497;28;19908;-44
2021/06/28 12:58:20;;;;;;;;;;;25.80;94.60;;;;;;5123353;28;19907;-43
2021/06/28 13:00:49;;;;;;;;;;;25.90;94.60;;;;;;5128789;28;19908;-46
2021/06/28 13:03:17;;;;;;;;;;;25.90;94.50;;;;;;5129255;28;19908;-48
2021/06/28 13:05:59;;;;;;;;;;;25.90;94.40;;;;;;5128626;28;20196;-53
2021/06/28 13:08:32;;;;;;;;;;;25.90;94.40;;;;;;5129113;28;19971;-48
2021/06/28 13:11:10;;;;;;;;;;;26.00;94.40;;;;;;5127598;28;20000;-49
2021/06/28 13:13:38;;;;;;;;;;;26.00;94.30;;;;;;5128861;28;19930;-51
2021/06/28 13:16:17;;;;;;;;;;;26.00;94.40;;;;;;5128808;28;19911;-51
2021/06/28 13:18:54;;;;;;;;;;;26.00;94.30;;;;;;5128303;27;19915;-48
2021/06/28 13:21:20;;;;;;;;;;;26.00;94.30;;;;;;5128643;28;20192;-46
2021/06/28 13:23:48;;;;;;;;;;;26.00;94.30;;;;;;5128087;28;20223;-47
2021/06/28 13:26:22;;;;;;;;;;;26.00;94.40;;;;;;5127256;28;20081;-46
2021/06/28 13:28:49;;;;;;;;;;;26.10;94.30;;;;;;5128792;28;19908;-44
2021/06/28 13:31:15;;;;;;;;;;;26.10;94.40;;;;;;5128401;28;19908;-46
2021/06/28 13:34:00;;;;;;;;;;;26.10;94.30;;;;;;5128527;28;19908;-45
2021/06/28 13:36:26;;;;;;;;;;;26.10;94.30;;;;;;5128118;28;20193;-46
2021/06/28 13:38:52;;;;;;;;;;;26.20;94.20;;;;;;5127947;28;19994;-47
2021/06/28 13:41:19;;;;;;;;;;;26.20;94.20;;;;;;5128230;28;20070;-54
2021/06/28 13:43:45;;;;;;;;;;;26.20;94.30;;;;;;5128215;28;19956;-49
2021/06/28 13:46:33;;;;;;;;;;;26.20;94.20;;;;;;5128001;28;19937;-53
2021/06/28 13:49:14;;;;;;;;;;;26.20;94.30;;;;;;5126796;28;20119;-45
2021/06/28 13:51:41;;;;;;;;;;;26.20;94.30;;;;;;5127732;28;19903;-48
2021/06/28 13:54:07;;;;;;;;;;;26.20;94.30;;;;;;5127937;28;19904;-50
2021/06/28 13:56:33;;;;;;;;;;;26.30;94.30;;;;;;5127565;28;19978;-52
2021/06/28 13:59:01;;;;;;;;;;;26.20;94.20;;;;;;5127884;28;19915;-45
2021/06/28 14:01:27;;;;;;;;;;;26.30;94.30;;;;;;5127943;28;19911;-55
2021/06/28 14:03:53;;;;;;;;;;;26.30;94.30;;;;;;5127629;28;19908;-48
2021/06/28 14:06:19;;;;;;;;;;;26.30;94.30;;;;;;5126746;28;19919;-43
2021/06/28 14:08:46;;;;;;;;;;;26.30;94.30;;;;;;5127596;28;20220;-49
2021/06/28 14:11:12;;;;;;;;;;;26.30;94.20;;;;;;5127680;28;19912;-50
2021/06/28 14:13:38;;;;;;;;;;;26.30;94.20;;;;;;5127845;28;20188;-47
2021/06/28 14:16:04;;;;;;;;;;;26.30;94.20;;;;;;5127747;28;19915;-47
2021/06/28 14:18:30;;;;;;;;;;;26.30;94.20;;;;;;5127813;28;19911;-48
2021/06/28 14:20:57;;;;;;;;;;;26.30;94.20;;;;;;5127506;28;19908;-50